sensor_id;sensor_type;location;lat;lon;timestamp;temperature;humidity
1455;DHT22;721;48.168;12.818;2023-07-08T00:00:22;20.30;1.00
1455;DHT22;721;48.168;12.818;2023-07-08T00:02:49;20.30;1.00
1455;DHT22;721;48.168;12.818;2023-07-08T00:05:18;20.40;1.00
1455;DHT22;721;48.168;12.818;2023-07-08T00:07:47;20.30;1.00
1455;DHT22;721;48.168;12.818;2023-07-08T00:10:16;20.30;1.00
1455;DHT22;721;48.168;12.818;2023-07-08T00:12:45;20.30;1.00
1455;DHT22;721;48.168;12.818;2023-07-08T00:15:13;20.20;1.00
1455;DHT22;721;48.168;12.818;2023-07-08T00:17:40;20.20;1.00
1455;DHT22;721;48.168;12.818;2023-07-08T00:20:14;20.20;1.00
1455;DHT22;721;48.168;12.818;2023-07-08T00:22:43;20.20;1.00
1455;DHT22;721;48.168;12.818;2023-07-08T00:25:14;20.20;1.00
1455;DHT22;721;48.168;12.818;2023-07-08T00:27:41;20.10;1.00
1455;DHT22;721;48.168;12.818;2023-07-08T00:30:19;20.10;1.00
1455;DHT22;721;48.168;12.818;2023-07-08T00:32:46;20.10;1.00
1455;DHT22;721;48.168;12.818;2023-07-08T00:35:14;20.00;1.00
1455;DHT22;721;48.168;12.818;2023-07-08T00:37:42;19.90;1.00
1455;DHT22;721;48.168;12.818;2023-07-08T00:40:16;19.90;1.00
1455;DHT22;721;48.168;12.818;2023-07-08T00:42:44;19.80;1.00
1455;DHT22;721;48.168;12.818;2023-07-08T00:45:27;19.80;1.00
1455;DHT22;721;48.168;12.818;2023-07-08T00:47:56;19.80;1.00
1455;DHT22;721;48.168;12.818;2023-07-08T00:50:26;19.80;1.00
1455;DHT22;721;48.168;12.818;2023-07-08T00:53:24;19.80;1.00
1455;DHT22;721;48.168;12.818;2023-07-08T00:55:54;19.70;1.00
1455;DHT22;721;48.168;12.818;2023-07-08T00:58:24;19.70;1.00
1455;DHT22;721;48.168;12.818;2023-07-08T01:00:52;19.70;1.00
1455;DHT22;721;48.168;12.818;2023-07-08T01:03:20;19.60;1.00
1455;DHT22;721;48.168;12.818;2023-07-08T01:05:48;19.60;1.00
1455;DHT22;721;48.168;12.818;2023-07-08T01:08:15;19.70;1.00
1455;DHT22;721;48.168;12.818;2023-07-08T01:10:46;19.60;1.00
1455;DHT22;721;48.168;12.818;2023-07-08T01:13:16;19.50;1.00
1455;DHT22;721;48.168;12.818;2023-07-08T01:15:46;19.50;1.00
1455;DHT22;721;48.168;12.818;2023-07-08T01:18:16;19.50;1.00
1455;DHT22;721;48.168;12.818;2023-07-08T01:20:46;19.60;1.00
1455;DHT22;721;48.168;12.818;2023-07-08T01:23:15;19.60;1.00
1455;DHT22;721;48.168;12.818;2023-07-08T01:25:43;19.60;1.00
1455;DHT22;721;48.168;12.818;2023-07-08T01:28:11;19.60;1.00
1455;DHT22;721;48.168;12.818;2023-07-08T01:30:40;19.50;1.00
1455;DHT22;721;48.168;12.818;2023-07-08T01:33:14;19.50;1.00
1455;DHT22;721;48.168;12.818;2023-07-08T01:35:42;19.50;1.00
1455;DHT22;721;48.168;12.818;2023-07-08T01:38:11;19.50;1.00
1455;DHT22;721;48.168;12.818;2023-07-08T01:40:49;19.50;1.00
1455;DHT22;721;48.168;12.818;2023-07-08T01:43:17;19.40;1.00
1455;DHT22;721;48.168;12.818;2023-07-08T01:45:44;19.40;1.00
1455;DHT22;721;48.168;12.818;2023-07-08T01:48:14;19.50;1.00
1455;DHT22;721;48.168;12.818;2023-07-08T01:50:44;19.50;1.00
1455;DHT22;721;48.168;12.818;2023-07-08T01:53:15;19.40;1.00
1455;DHT22;721;48.168;12.818;2023-07-08T01:55:43;19.40;1.00
1455;DHT22;721;48.168;12.818;2023-07-08T01:58:10;19.30;1.00
1455;DHT22;721;48.168;12.818;2023-07-08T02:00:37;19.30;1.00
1455;DHT22;721;48.168;12.818;2023-07-08T02:03:04;19.40;1.00
1455;DHT22;721;48.168;12.818;2023-07-08T02:05:30;19.40;1.00
1455;DHT22;721;48.168;12.818;2023-07-08T02:07:57;19.30;1.00
1455;DHT22;721;48.168;12.818;2023-07-08T02:10:24;19.30;1.00
1455;DHT22;721;48.168;12.818;2023-07-08T02:12:53;19.30;1.00
1455;DHT22;721;48.168;12.818;2023-07-08T02:15:20;19.20;1.00
1455;DHT22;721;48.168;12.818;2023-07-08T02:17:46;19.10;1.00
1455;DHT22;721;48.168;12.818;2023-07-08T02:20:14;19.20;1.00
1455;DHT22;721;48.168;12.818;2023-07-08T02:22:41;19.10;1.00
1455;DHT22;721;48.168;12.818;2023-07-08T02:25:08;19.10;1.00
1455;DHT22;721;48.168;12.818;2023-07-08T02:27:36;19.20;1.00
1455;DHT22;721;48.168;12.818;2023-07-08T02:30:05;19.20;1.00
1455;DHT22;721;48.168;12.818;2023-07-08T02:32:32;19.20;1.00
1455;DHT22;721;48.168;12.818;2023-07-08T02:35:00;19.20;1.00
1455;DHT22;721;48.168;12.818;2023-07-08T02:37:27;19.10;1.00
1455;DHT22;721;48.168;12.818;2023-07-08T02:39:53;19.10;1.00
1455;DHT22;721;48.168;12.818;2023-07-08T02:42:20;19.10;1.00
1455;DHT22;721;48.168;12.818;2023-07-08T02:44:47;19.10;1.00
1455;DHT22;721;48.168;12.818;2023-07-08T02:47:15;19.10;1.00
1455;DHT22;721;48.168;12.818;2023-07-08T02:49:42;19.10;1.00
1455;DHT22;721;48.168;12.818;2023-07-08T02:52:09;19.10;1.00
1455;DHT22;721;48.168;12.818;2023-07-08T02:54:36;19.10;1.00
1455;DHT22;721;48.168;12.818;2023-07-08T02:57:03;19.00;1.00
1455;DHT22;721;48.168;12.818;2023-07-08T02:59:30;19.00;1.00
1455;DHT22;721;48.168;12.818;2023-07-08T03:01:57;18.90;1.00
1455;DHT22;721;48.168;12.818;2023-07-08T03:04:25;18.80;1.00
1455;DHT22;721;48.168;12.818;2023-07-08T03:06:51;18.80;1.00
1455;DHT22;721;48.168;12.818;2023-07-08T03:09:18;18.70;1.00
1455;DHT22;721;48.168;12.818;2023-07-08T03:11:45;18.60;1.00
1455;DHT22;721;48.168;12.818;2023-07-08T03:14:12;18.60;1.00
1455;DHT22;721;48.168;12.818;2023-07-08T03:16:38;18.50;1.00
1455;DHT22;721;48.168;12.818;2023-07-08T03:19:05;18.50;1.00
1455;DHT22;721;48.168;12.818;2023-07-08T03:21:34;18.60;1.00
1455;DHT22;721;48.168;12.818;2023-07-08T03:24:00;18.60;1.00
1455;DHT22;721;48.168;12.818;2023-07-08T03:26:27;18.60;1.00
1455;DHT22;721;48.168;12.818;2023-07-08T03:28:54;18.60;1.00
1455;DHT22;721;48.168;12.818;2023-07-08T03:31:21;18.70;1.00
1455;DHT22;721;48.168;12.818;2023-07-08T03:33:47;18.70;1.00
1455;DHT22;721;48.168;12.818;2023-07-08T03:36:17;18.70;1.00
1455;DHT22;721;48.168;12.818;2023-07-08T03:38:51;18.80;1.00
1455;DHT22;721;48.168;12.818;2023-07-08T03:41:18;18.80;1.00
1455;DHT22;721;48.168;12.818;2023-07-08T03:43:44;18.70;1.00
1455;DHT22;721;48.168;12.818;2023-07-08T03:46:11;18.70;1.00
1455;DHT22;721;48.168;12.818;2023-07-08T03:48:38;18.60;1.00
1455;DHT22;721;48.168;12.818;2023-07-08T03:51:09;18.60;1.00
1455;DHT22;721;48.168;12.818;2023-07-08T03:53:36;18.60;1.00
1455;DHT22;721;48.168;12.818;2023-07-08T03:56:04;18.50;1.00
1455;DHT22;721;48.168;12.818;2023-07-08T03:58:31;18.50;1.00
1455;DHT22;721;48.168;12.818;2023-07-08T04:00:58;18.50;1.00
1455;DHT22;721;48.168;12.818;2023-07-08T04:03:24;18.50;1.00
1455;DHT22;721;48.168;12.818;2023-07-08T04:05:51;18.50;1.00
1455;DHT22;721;48.168;12.818;2023-07-08T04:08:18;18.60;1.00
1455;DHT22;721;48.168;12.818;2023-07-08T04:10:45;18.60;1.00
1455;DHT22;721;48.168;12.818;2023-07-08T04:13:13;18.60;1.00
1455;DHT22;721;48.168;12.818;2023-07-08T04:15:40;18.70;1.00
1455;DHT22;721;48.168;12.818;2023-07-08T04:18:06;18.70;1.00
1455;DHT22;721;48.168;12.818;2023-07-08T04:20:33;18.80;1.00
1455;DHT22;721;48.168;12.818;2023-07-08T04:23:01;18.80;1.00
1455;DHT22;721;48.168;12.818;2023-07-08T04:25:28;18.90;1.00
1455;DHT22;721;48.168;12.818;2023-07-08T04:27:54;18.80;1.00
1455;DHT22;721;48.168;12.818;2023-07-08T04:30:24;18.80;1.00
1455;DHT22;721;48.168;12.818;2023-07-08T04:32:51;18.80;1.00
1455;DHT22;721;48.168;12.818;2023-07-08T04:35:18;18.80;1.00
1455;DHT22;721;48.168;12.818;2023-07-08T04:37:45;18.70;1.00
1455;DHT22;721;48.168;12.818;2023-07-08T04:40:17;18.70;1.00
1455;DHT22;721;48.168;12.818;2023-07-08T04:42:45;18.70;1.00
1455;DHT22;721;48.168;12.818;2023-07-08T04:45:14;18.70;1.00
1455;DHT22;721;48.168;12.818;2023-07-08T04:47:43;18.80;1.00
1455;DHT22;721;48.168;12.818;2023-07-08T04:50:12;18.80;1.00
1455;DHT22;721;48.168;12.818;2023-07-08T04:52:39;18.80;1.00
1455;DHT22;721;48.168;12.818;2023-07-08T04:55:06;18.80;1.00
1455;DHT22;721;48.168;12.818;2023-07-08T04:57:35;18.80;1.00
1455;DHT22;721;48.168;12.818;2023-07-08T05:00:02;18.90;1.00
1455;DHT22;721;48.168;12.818;2023-07-08T05:02:32;18.90;1.00
1455;DHT22;721;48.168;12.818;2023-07-08T05:05:00;18.90;1.00
1455;DHT22;721;48.168;12.818;2023-07-08T05:07:27;19.00;1.00
1455;DHT22;721;48.168;12.818;2023-07-08T05:09:54;19.00;1.00
1455;DHT22;721;48.168;12.818;2023-07-08T05:12:21;19.10;1.00
1455;DHT22;721;48.168;12.818;2023-07-08T05:14:48;19.20;1.00
1455;DHT22;721;48.168;12.818;2023-07-08T05:17:15;19.30;1.00
1455;DHT22;721;48.168;12.818;2023-07-08T05:19:41;19.40;1.00
1455;DHT22;721;48.168;12.818;2023-07-08T05:22:11;19.50;1.00
1455;DHT22;721;48.168;12.818;2023-07-08T05:24:38;19.70;1.00
1455;DHT22;721;48.168;12.818;2023-07-08T05:27:05;19.70;1.00
1455;DHT22;721;48.168;12.818;2023-07-08T05:29:32;19.80;1.00
1455;DHT22;721;48.168;12.818;2023-07-08T05:31:59;19.90;1.00
1455;DHT22;721;48.168;12.818;2023-07-08T05:34:26;20.00;1.00
1455;DHT22;721;48.168;12.818;2023-07-08T05:36:52;20.00;1.00
1455;DHT22;721;48.168;12.818;2023-07-08T05:39:20;20.20;1.00
1455;DHT22;721;48.168;12.818;2023-07-08T05:41:47;20.40;1.00
1455;DHT22;721;48.168;12.818;2023-07-08T05:44:14;20.40;1.00
1455;DHT22;721;48.168;12.818;2023-07-08T05:46:41;20.60;1.00
1455;DHT22;721;48.168;12.818;2023-07-08T05:49:07;20.70;1.00
1455;DHT22;721;48.168;12.818;2023-07-08T05:51:36;20.90;1.00
1455;DHT22;721;48.168;12.818;2023-07-08T05:54:03;21.10;1.00
1455;DHT22;721;48.168;12.818;2023-07-08T05:56:31;21.20;1.00
1455;DHT22;721;48.168;12.818;2023-07-08T05:58:58;21.20;1.00
1455;DHT22;721;48.168;12.818;2023-07-08T06:01:24;21.10;1.00
1455;DHT22;721;48.168;12.818;2023-07-08T06:03:51;21.20;1.00
1455;DHT22;721;48.168;12.818;2023-07-08T06:06:18;21.30;1.00
1455;DHT22;721;48.168;12.818;2023-07-08T06:08:45;21.50;1.00
1455;DHT22;721;48.168;12.818;2023-07-08T06:11:11;21.50;1.00
1455;DHT22;721;48.168;12.818;2023-07-08T06:13:40;21.50;1.00
1455;DHT22;721;48.168;12.818;2023-07-08T06:16:06;21.40;1.00
1455;DHT22;721;48.168;12.818;2023-07-08T06:18:33;21.50;1.00
1455;DHT22;721;48.168;12.818;2023-07-08T06:21:00;21.70;1.00
1455;DHT22;721;48.168;12.818;2023-07-08T06:23:28;21.70;1.00
1455;DHT22;721;48.168;12.818;2023-07-08T06:25:55;21.80;1.00
1455;DHT22;721;48.168;12.818;2023-07-08T06:28:22;21.90;1.00
1455;DHT22;721;48.168;12.818;2023-07-08T06:30:51;22.00;1.00
1455;DHT22;721;48.168;12.818;2023-07-08T06:33:17;22.20;1.00
1455;DHT22;721;48.168;12.818;2023-07-08T06:35:44;22.30;1.00
1455;DHT22;721;48.168;12.818;2023-07-08T06:38:12;22.30;1.00
1455;DHT22;721;48.168;12.818;2023-07-08T06:40:39;22.50;1.00
1455;DHT22;721;48.168;12.818;2023-07-08T06:43:06;22.60;1.00
1455;DHT22;721;48.168;12.818;2023-07-08T06:45:32;22.80;1.00
1455;DHT22;721;48.168;12.818;2023-07-08T06:48:00;23.00;1.00
1455;DHT22;721;48.168;12.818;2023-07-08T06:50:27;23.00;1.00
1455;DHT22;721;48.168;12.818;2023-07-08T06:52:54;23.10;1.00
1455;DHT22;721;48.168;12.818;2023-07-08T06:55:21;23.30;1.00
1455;DHT22;721;48.168;12.818;2023-07-08T06:57:47;23.40;1.00
1455;DHT22;721;48.168;12.818;2023-07-08T07:00:14;23.50;1.00
1455;DHT22;721;48.168;12.818;2023-07-08T07:02:41;23.60;1.00
1455;DHT22;721;48.168;12.818;2023-07-08T07:05:10;23.70;1.00
1455;DHT22;721;48.168;12.818;2023-07-08T07:07:37;23.90;1.00
1455;DHT22;721;48.168;12.818;2023-07-08T07:10:04;23.90;1.00
1455;DHT22;721;48.168;12.818;2023-07-08T07:12:31;24.10;1.00
1455;DHT22;721;48.168;12.818;2023-07-08T07:14:58;24.30;1.00
1455;DHT22;721;48.168;12.818;2023-07-08T07:17:25;24.50;1.00
1455;DHT22;721;48.168;12.818;2023-07-08T07:19:52;24.70;1.00
1455;DHT22;721;48.168;12.818;2023-07-08T07:22:20;24.80;1.00
1455;DHT22;721;48.168;12.818;2023-07-08T07:24:47;24.90;1.00
1455;DHT22;721;48.168;12.818;2023-07-08T07:27:14;25.00;1.00
1455;DHT22;721;48.168;12.818;2023-07-08T07:29:42;25.00;1.00
1455;DHT22;721;48.168;12.818;2023-07-08T07:32:10;25.20;1.00
1455;DHT22;721;48.168;12.818;2023-07-08T07:34:37;25.40;1.00
1455;DHT22;721;48.168;12.818;2023-07-08T07:37:05;25.40;1.00
1455;DHT22;721;48.168;12.818;2023-07-08T07:39:33;25.40;1.00
1455;DHT22;721;48.168;12.818;2023-07-08T07:42:00;25.40;1.00
1455;DHT22;721;48.168;12.818;2023-07-08T07:44:26;25.50;1.00
1455;DHT22;721;48.168;12.818;2023-07-08T07:46:53;25.80;1.00
1455;DHT22;721;48.168;12.818;2023-07-08T07:49:20;25.90;1.00
1455;DHT22;721;48.168;12.818;2023-07-08T07:51:47;26.00;1.00
1455;DHT22;721;48.168;12.818;2023-07-08T07:54:14;26.20;1.00
1455;DHT22;721;48.168;12.818;2023-07-08T07:56:43;26.40;1.00
1455;DHT22;721;48.168;12.818;2023-07-08T07:59:09;26.50;1.00
1455;DHT22;721;48.168;12.818;2023-07-08T08:01:36;26.40;1.00
1455;DHT22;721;48.168;12.818;2023-07-08T08:04:03;26.40;1.00
1455;DHT22;721;48.168;12.818;2023-07-08T08:06:30;26.50;1.00
1455;DHT22;721;48.168;12.818;2023-07-08T08:08:57;26.50;1.00
1455;DHT22;721;48.168;12.818;2023-07-08T08:11:24;26.70;1.00
1455;DHT22;721;48.168;12.818;2023-07-08T08:13:52;26.70;1.00
1455;DHT22;721;48.168;12.818;2023-07-08T08:16:19;26.60;1.00
1455;DHT22;721;48.168;12.818;2023-07-08T08:18:46;26.60;1.00
1455;DHT22;721;48.168;12.818;2023-07-08T08:21:13;26.60;1.00
1455;DHT22;721;48.168;12.818;2023-07-08T08:23:40;26.70;1.00
1455;DHT22;721;48.168;12.818;2023-07-08T08:26:07;27.00;1.00
1455;DHT22;721;48.168;12.818;2023-07-08T08:28:33;27.20;1.00
1455;DHT22;721;48.168;12.818;2023-07-08T08:31:02;27.20;1.00
1455;DHT22;721;48.168;12.818;2023-07-08T08:33:29;27.00;1.00
1455;DHT22;721;48.168;12.818;2023-07-08T08:35:56;27.10;1.00
1455;DHT22;721;48.168;12.818;2023-07-08T08:38:22;27.20;1.00
1455;DHT22;721;48.168;12.818;2023-07-08T08:40:49;27.40;1.00
1455;DHT22;721;48.168;12.818;2023-07-08T08:43:20;27.50;1.00
1455;DHT22;721;48.168;12.818;2023-07-08T08:45:53;27.70;1.00
1455;DHT22;721;48.168;12.818;2023-07-08T08:48:24;27.80;1.00
1455;DHT22;721;48.168;12.818;2023-07-08T08:50:53;28.00;1.00
1455;DHT22;721;48.168;12.818;2023-07-08T08:53:23;28.10;1.00
1455;DHT22;721;48.168;12.818;2023-07-08T08:55:55;28.20;1.00
1455;DHT22;721;48.168;12.818;2023-07-08T08:58:35;28.30;1.00
1455;DHT22;721;48.168;12.818;2023-07-08T09:01:06;28.40;1.00
1455;DHT22;721;48.168;12.818;2023-07-08T09:03:43;28.50;1.00
1455;DHT22;721;48.168;12.818;2023-07-08T09:06:14;28.60;1.00
1455;DHT22;721;48.168;12.818;2023-07-08T09:08:41;28.60;1.00
1455;DHT22;721;48.168;12.818;2023-07-08T09:11:16;28.70;1.00
1455;DHT22;721;48.168;12.818;2023-07-08T09:13:45;28.80;1.00
1455;DHT22;721;48.168;12.818;2023-07-08T09:16:18;28.80;1.00
1455;DHT22;721;48.168;12.818;2023-07-08T09:18:56;28.70;1.00
1455;DHT22;721;48.168;12.818;2023-07-08T09:21:28;28.70;1.00
1455;DHT22;721;48.168;12.818;2023-07-08T09:24:03;28.80;1.00
1455;DHT22;721;48.168;12.818;2023-07-08T09:26:32;28.70;1.00
1455;DHT22;721;48.168;12.818;2023-07-08T09:28:59;28.80;1.00
1455;DHT22;721;48.168;12.818;2023-07-08T09:31:27;28.70;1.00
1455;DHT22;721;48.168;12.818;2023-07-08T09:34:10;28.80;1.00
1455;DHT22;721;48.168;12.818;2023-07-08T09:36:40;28.90;1.00
1455;DHT22;721;48.168;12.818;2023-07-08T09:39:11;28.80;1.00
1455;DHT22;721;48.168;12.818;2023-07-08T09:41:39;28.90;1.00
1455;DHT22;721;48.168;12.818;2023-07-08T09:44:16;28.80;1.00
1455;DHT22;721;48.168;12.818;2023-07-08T09:46:44;28.70;1.00
1455;DHT22;721;48.168;12.818;2023-07-08T09:49:22;28.70;1.00
1455;DHT22;721;48.168;12.818;2023-07-08T09:51:50;28.50;1.00
1455;DHT22;721;48.168;12.818;2023-07-08T09:54:19;28.30;1.00
1455;DHT22;721;48.168;12.818;2023-07-08T09:56:54;28.30;1.00
1455;DHT22;721;48.168;12.818;2023-07-08T09:59:26;28.30;1.00
1455;DHT22;721;48.168;12.818;2023-07-08T10:01:54;28.20;1.00
1455;DHT22;721;48.168;12.818;2023-07-08T10:04:22;28.30;1.00
1455;DHT22;721;48.168;12.818;2023-07-08T10:06:49;28.40;1.00
1455;DHT22;721;48.168;12.818;2023-07-08T10:09:20;28.50;1.00
1455;DHT22;721;48.168;12.818;2023-07-08T10:11:51;28.40;1.00
1455;DHT22;721;48.168;12.818;2023-07-08T10:14:25;28.20;1.00
1455;DHT22;721;48.168;12.818;2023-07-08T10:16:53;28.20;1.00
1455;DHT22;721;48.168;12.818;2023-07-08T10:19:22;28.20;1.00
1455;DHT22;721;48.168;12.818;2023-07-08T10:21:56;28.10;1.00
1455;DHT22;721;48.168;12.818;2023-07-08T10:24:36;28.20;1.00
1455;DHT22;721;48.168;12.818;2023-07-08T10:27:12;28.20;1.00
1455;DHT22;721;48.168;12.818;2023-07-08T10:29:51;28.30;1.00
1455;DHT22;721;48.168;12.818;2023-07-08T10:32:28;28.50;1.00
1455;DHT22;721;48.168;12.818;2023-07-08T10:35:03;28.70;1.00
1455;DHT22;721;48.168;12.818;2023-07-08T10:37:44;28.80;1.00
1455;DHT22;721;48.168;12.818;2023-07-08T10:40:28;28.90;1.00
1455;DHT22;721;48.168;12.818;2023-07-08T10:43:14;29.00;1.00
1455;DHT22;721;48.168;12.818;2023-07-08T10:45:50;29.20;1.00
1455;DHT22;721;48.168;12.818;2023-07-08T10:48:31;29.20;1.00
1455;DHT22;721;48.168;12.818;2023-07-08T10:51:12;29.20;1.00
1455;DHT22;721;48.168;12.818;2023-07-08T10:53:56;29.30;1.00
1455;DHT22;721;48.168;12.818;2023-07-08T10:56:39;29.50;1.00
1455;DHT22;721;48.168;12.818;2023-07-08T10:59:21;29.30;1.00
1455;DHT22;721;48.168;12.818;2023-07-08T11:02:14;29.20;1.00
1455;DHT22;721;48.168;12.818;2023-07-08T11:04:54;29.10;1.00
1455;DHT22;721;48.168;12.818;2023-07-08T11:07:32;29.20;1.00
1455;DHT22;721;48.168;12.818;2023-07-08T11:10:07;29.30;1.00
1455;DHT22;721;48.168;12.818;2023-07-08T11:12:42;29.40;1.00
1455;DHT22;721;48.168;12.818;2023-07-08T11:15:16;29.50;1.00
1455;DHT22;721;48.168;12.818;2023-07-08T11:17:49;29.60;1.00
1455;DHT22;721;48.168;12.818;2023-07-08T11:20:19;29.60;1.00
1455;DHT22;721;48.168;12.818;2023-07-08T11:22:52;29.80;1.00
1455;DHT22;721;48.168;12.818;2023-07-08T11:25:21;29.90;1.00
1455;DHT22;721;48.168;12.818;2023-07-08T11:27:53;30.00;1.00
1455;DHT22;721;48.168;12.818;2023-07-08T11:30:23;30.00;1.00
1455;DHT22;721;48.168;12.818;2023-07-08T11:32:57;30.20;1.00
1455;DHT22;721;48.168;12.818;2023-07-08T11:35:33;30.30;1.00
1455;DHT22;721;48.168;12.818;2023-07-08T11:38:02;30.40;1.00
1455;DHT22;721;48.168;12.818;2023-07-08T11:40:30;30.60;1.00
1455;DHT22;721;48.168;12.818;2023-07-08T11:43:02;30.60;1.00
1455;DHT22;721;48.168;12.818;2023-07-08T11:45:34;30.70;1.00
1455;DHT22;721;48.168;12.818;2023-07-08T11:48:06;30.80;1.00
1455;DHT22;721;48.168;12.818;2023-07-08T11:50:38;30.80;1.00
1455;DHT22;721;48.168;12.818;2023-07-08T11:53:10;30.80;1.00
1455;DHT22;721;48.168;12.818;2023-07-08T11:55:42;30.90;1.00
1455;DHT22;721;48.168;12.818;2023-07-08T11:58:21;31.00;1.00
1455;DHT22;721;48.168;12.818;2023-07-08T12:00:54;31.10;1.00
1455;DHT22;721;48.168;12.818;2023-07-08T12:03:31;31.10;1.00
1455;DHT22;721;48.168;12.818;2023-07-08T12:05:59;31.20;1.00
1455;DHT22;721;48.168;12.818;2023-07-08T12:08:37;31.20;1.00
1455;DHT22;721;48.168;12.818;2023-07-08T12:11:10;31.10;1.00
1455;DHT22;721;48.168;12.818;2023-07-08T12:13:38;31.20;1.00
1455;DHT22;721;48.168;12.818;2023-07-08T12:16:09;31.40;1.00
1455;DHT22;721;48.168;12.818;2023-07-08T12:18:39;31.30;1.00
1455;DHT22;721;48.168;12.818;2023-07-08T12:21:12;31.40;1.00
1455;DHT22;721;48.168;12.818;2023-07-08T12:23:45;31.40;1.00
1455;DHT22;721;48.168;12.818;2023-07-08T12:26:13;31.40;1.00
1455;DHT22;721;48.168;12.818;2023-07-08T12:28:40;31.50;1.00
1455;DHT22;721;48.168;12.818;2023-07-08T12:31:14;31.60;1.00
1455;DHT22;721;48.168;12.818;2023-07-08T12:33:41;31.50;1.00
1455;DHT22;721;48.168;12.818;2023-07-08T12:36:11;31.60;1.00
1455;DHT22;721;48.168;12.818;2023-07-08T12:38:41;31.80;1.00
1455;DHT22;721;48.168;12.818;2023-07-08T12:41:13;31.90;1.00
1455;DHT22;721;48.168;12.818;2023-07-08T12:43:40;31.80;1.00
1455;DHT22;721;48.168;12.818;2023-07-08T12:46:09;31.60;1.00
1455;DHT22;721;48.168;12.818;2023-07-08T12:48:37;31.50;1.00
1455;DHT22;721;48.168;12.818;2023-07-08T12:51:05;31.30;1.00
1455;DHT22;721;48.168;12.818;2023-07-08T12:53:32;31.20;1.00
1455;DHT22;721;48.168;12.818;2023-07-08T12:56:00;31.40;1.00
1455;DHT22;721;48.168;12.818;2023-07-08T12:58:30;31.50;1.00
1455;DHT22;721;48.168;12.818;2023-07-08T13:01:00;31.70;1.00
1455;DHT22;721;48.168;12.818;2023-07-08T13:03:30;31.60;1.00
1455;DHT22;721;48.168;12.818;2023-07-08T13:05:59;31.90;1.00
1455;DHT22;721;48.168;12.818;2023-07-08T13:08:30;32.10;1.00
1455;DHT22;721;48.168;12.818;2023-07-08T13:10:58;32.30;1.00
1455;DHT22;721;48.168;12.818;2023-07-08T13:13:28;32.40;1.00
1455;DHT22;721;48.168;12.818;2023-07-08T13:15:57;32.40;1.00
1455;DHT22;721;48.168;12.818;2023-07-08T13:18:30;32.70;1.00
1455;DHT22;721;48.168;12.818;2023-07-08T13:20:58;32.70;1.00
1455;DHT22;721;48.168;12.818;2023-07-08T13:23:26;32.80;1.00
1455;DHT22;721;48.168;12.818;2023-07-08T13:25:54;32.80;1.00
1455;DHT22;721;48.168;12.818;2023-07-08T13:28:24;32.70;1.00
1455;DHT22;721;48.168;12.818;2023-07-08T13:30:53;32.50;1.00
1455;DHT22;721;48.168;12.818;2023-07-08T13:33:21;32.50;1.00
1455;DHT22;721;48.168;12.818;2023-07-08T13:35:50;32.30;1.00
1455;DHT22;721;48.168;12.818;2023-07-08T13:38:20;32.50;1.00
1455;DHT22;721;48.168;12.818;2023-07-08T13:40:49;32.50;1.00
1455;DHT22;721;48.168;12.818;2023-07-08T13:43:16;32.30;1.00
1455;DHT22;721;48.168;12.818;2023-07-08T13:45:45;32.00;1.00
1455;DHT22;721;48.168;12.818;2023-07-08T13:48:19;32.00;1.00
1455;DHT22;721;48.168;12.818;2023-07-08T13:50:53;32.20;1.00
1455;DHT22;721;48.168;12.818;2023-07-08T13:53:24;32.30;1.00
1455;DHT22;721;48.168;12.818;2023-07-08T13:55:59;32.50;1.00
1455;DHT22;721;48.168;12.818;2023-07-08T13:58:29;32.90;1.00
1455;DHT22;721;48.168;12.818;2023-07-08T14:00:57;32.90;1.00
1455;DHT22;721;48.168;12.818;2023-07-08T14:03:24;32.90;1.00
1455;DHT22;721;48.168;12.818;2023-07-08T14:05:52;33.10;1.00
1455;DHT22;721;48.168;12.818;2023-07-08T14:08:19;33.20;1.00
1455;DHT22;721;48.168;12.818;2023-07-08T14:10:47;32.90;1.00
1455;DHT22;721;48.168;12.818;2023-07-08T14:13:14;32.90;1.00
1455;DHT22;721;48.168;12.818;2023-07-08T14:15:43;32.80;1.00
1455;DHT22;721;48.168;12.818;2023-07-08T14:18:11;32.80;1.00
1455;DHT22;721;48.168;12.818;2023-07-08T14:20:38;33.00;1.00
1455;DHT22;721;48.168;12.818;2023-07-08T14:23:08;33.20;1.00
1455;DHT22;721;48.168;12.818;2023-07-08T14:25:36;33.30;1.00
1455;DHT22;721;48.168;12.818;2023-07-08T14:28:03;33.60;1.00
1455;DHT22;721;48.168;12.818;2023-07-08T14:30:31;33.80;1.00
1455;DHT22;721;48.168;12.818;2023-07-08T14:32:57;33.60;1.00
1455;DHT22;721;48.168;12.818;2023-07-08T14:35:27;33.70;1.00
1455;DHT22;721;48.168;12.818;2023-07-08T14:37:54;33.70;1.00
1455;DHT22;721;48.168;12.818;2023-07-08T14:40:31;33.90;1.00
1455;DHT22;721;48.168;12.818;2023-07-08T14:43:00;34.10;1.00
1455;DHT22;721;48.168;12.818;2023-07-08T14:45:29;34.30;1.00
1455;DHT22;721;48.168;12.818;2023-07-08T14:47:57;34.20;1.00
1455;DHT22;721;48.168;12.818;2023-07-08T14:50:24;34.40;1.00
1455;DHT22;721;48.168;12.818;2023-07-08T14:52:54;34.50;1.00
1455;DHT22;721;48.168;12.818;2023-07-08T14:55:21;34.60;1.00
1455;DHT22;721;48.168;12.818;2023-07-08T14:57:49;34.30;1.00
1455;DHT22;721;48.168;12.818;2023-07-08T15:00:18;33.80;1.00
1455;DHT22;721;48.168;12.818;2023-07-08T15:02:47;33.50;1.00
1455;DHT22;721;48.168;12.818;2023-07-08T15:05:17;33.40;1.00
1455;DHT22;721;48.168;12.818;2023-07-08T15:07:44;33.60;1.00
1455;DHT22;721;48.168;12.818;2023-07-08T15:10:11;34.10;1.00
1455;DHT22;721;48.168;12.818;2023-07-08T15:12:38;34.10;1.00
1455;DHT22;721;48.168;12.818;2023-07-08T15:15:14;34.60;1.00
1455;DHT22;721;48.168;12.818;2023-07-08T15:17:41;34.40;1.00
1455;DHT22;721;48.168;12.818;2023-07-08T15:20:11;34.40;1.00
1455;DHT22;721;48.168;12.818;2023-07-08T15:22:43;34.40;1.00
1455;DHT22;721;48.168;12.818;2023-07-08T15:25:11;34.20;1.00
1455;DHT22;721;48.168;12.818;2023-07-08T15:27:38;34.50;1.00
1455;DHT22;721;48.168;12.818;2023-07-08T15:30:15;34.60;1.00
1455;DHT22;721;48.168;12.818;2023-07-08T15:32:42;34.70;1.00
1455;DHT22;721;48.168;12.818;2023-07-08T15:35:12;35.10;1.00
1455;DHT22;721;48.168;12.818;2023-07-08T15:37:39;34.80;1.00
1455;DHT22;721;48.168;12.818;2023-07-08T15:40:07;34.90;1.00
1455;DHT22;721;48.168;12.818;2023-07-08T15:42:34;34.70;1.00
1455;DHT22;721;48.168;12.818;2023-07-08T15:45:01;34.70;1.00
1455;DHT22;721;48.168;12.818;2023-07-08T15:47:30;34.80;1.00
1455;DHT22;721;48.168;12.818;2023-07-08T15:49:56;34.90;1.00
1455;DHT22;721;48.168;12.818;2023-07-08T15:52:23;34.90;1.00
1455;DHT22;721;48.168;12.818;2023-07-08T15:54:50;34.90;1.00
1455;DHT22;721;48.168;12.818;2023-07-08T15:57:17;35.10;1.00
1455;DHT22;721;48.168;12.818;2023-07-08T15:59:44;35.00;1.00
1455;DHT22;721;48.168;12.818;2023-07-08T16:02:23;34.50;1.00
1455;DHT22;721;48.168;12.818;2023-07-08T16:04:52;34.30;1.00
1455;DHT22;721;48.168;12.818;2023-07-08T16:07:19;33.80;1.00
1455;DHT22;721;48.168;12.818;2023-07-08T16:09:46;33.50;1.00
1455;DHT22;721;48.168;12.818;2023-07-08T16:12:21;33.30;1.00
1455;DHT22;721;48.168;12.818;2023-07-08T16:14:49;33.30;1.00
1455;DHT22;721;48.168;12.818;2023-07-08T16:17:15;33.10;1.00
1455;DHT22;721;48.168;12.818;2023-07-08T16:19:43;33.20;1.00
1455;DHT22;721;48.168;12.818;2023-07-08T16:22:11;33.40;1.00
1455;DHT22;721;48.168;12.818;2023-07-08T16:24:38;33.70;1.00
1455;DHT22;721;48.168;12.818;2023-07-08T16:27:05;33.80;1.00
1455;DHT22;721;48.168;12.818;2023-07-08T16:29:32;33.90;1.00